Terminal Aerodrome Forecast
Issued by NWS Corpus Christi, TX

Home | Current Version | Previous Version | Text Only | Print | Product List | Glossary On
Versions: 1 2 3 4 5 6 7 8 9 10 11 12 13 14 15 16 17 18 19 20 21 22 23 24 25
000
FTUS44 KCRP 260330 AAC
TAFCRP
TAF AMD
KCRP 260330Z 2604/2624 14012KT P6SM VCSH SCT018 BKN150
     FM260600 15010KT P6SM BKN019 OVC100
      TEMPO 2606/2610 -SHRA SCT015 OVC100
     FM261000 15008KT P6SM OVC015
     FM261600 16013KT P6SM BKN035 OVC150
     FM262000 14016G24KT P6SM VCTS BKN040CB OVC150=

USA.gov is the U.S. government's official web portal to all federal, state and local government web resources and services.